Time;durP1;ratioP1;P1;durP2;ratioP2;P2;SDS_P1;SDS_P2;PMS_P1;PMS_P2;Temp;Humidity;BMP_temperature;BMP_pressure;BME280_temperature;BME280_humidity;BME280_pressure;Samples;Min_cycle;Max_cycle;Signal;HPM_P1;HPM_P2
2021/01/12 00:00:11;;;;;;;4.53;0.80;;;;;;;10.64;78.93;100266.22;5012189;28;20030;-85
2021/01/12 00:02:37;;;;;;;5.38;0.85;;;;;;;11.09;77.11;100277.00;5012853;28;20083;-85
2021/01/12 00:05:04;;;;;;;4.72;1.17;;;;;;;11.45;76.38;100286.66;5011333;28;20030;-85
2021/01/12 00:07:30;;;;;;;10.73;1.30;;;;;;;10.87;77.61;100267.22;5012234;28;20392;-85
2021/01/12 00:09:56;;;;;;;7.25;1.25;;;;;;;10.91;78.07;100271.28;5012511;28;20025;-85
2021/01/12 00:12:21;;;;;;;3.33;0.70;;;;;;;10.73;78.78;100267.38;5012404;28;20361;-85
2021/01/12 00:14:47;;;;;;;6.40;0.90;;;;;;;11.08;77.55;100268.31;5012530;28;20026;-82
2021/01/12 00:17:13;;;;;;;5.32;1.20;;;;;;;10.89;78.34;100252.19;5012273;28;20034;-84
2021/01/12 00:19:39;;;;;;;7.50;1.00;;;;;;;10.67;78.83;100248.47;5012056;28;20022;-85
2021/01/12 00:22:14;;;;;;;8.02;1.05;;;;;;;10.91;78.27;100242.41;5012309;28;20076;-84
2021/01/12 00:24:44;;;;;;;7.90;1.35;;;;;;;11.17;76.72;100231.78;4993151;28;20035;-85
2021/01/12 00:27:10;;;;;;;6.18;0.90;;;;;;;10.81;78.27;100226.47;4991368;28;20036;-84
2021/01/12 00:29:35;;;;;;;4.55;0.65;;;;;;;11.13;77.34;100215.41;4992671;28;20029;-84
2021/01/12 00:32:01;;;;;;;7.80;0.88;;;;;;;11.23;76.57;100202.44;4992518;28;20022;-84
2021/01/12 00:34:26;;;;;;;8.27;1.08;;;;;;;10.96;78.23;100203.50;5007620;28;20027;-82
2021/01/12 00:36:52;;;;;;;6.25;1.15;;;;;;;10.80;78.84;100192.41;4993471;28;20018;-83
2021/01/12 00:39:20;;;;;;;3.75;0.77;;;;;;;11.09;77.56;100201.66;5012294;28;20449;-83
2021/01/12 00:41:47;;;;;;;5.53;1.08;;;;;;;10.85;78.41;100201.66;5012994;28;20014;-82
2021/01/12 00:44:12;;;;;;;9.15;1.58;;;;;;;10.94;78.12;100191.41;5022031;28;20081;-82
2021/01/12 00:46:43;;;;;;;6.05;0.90;;;;;;;11.16;77.39;100203.81;5019330;28;20061;-83
2021/01/12 00:49:08;;;;;;;5.40;1.00;;;;;;;11.05;77.27;100181.81;5017434;28;20036;-83
2021/01/12 00:51:36;;;;;;;6.75;1.33;;;;;;;11.14;76.85;100177.69;5016027;28;20026;-83
2021/01/12 00:54:02;;;;;;;13.43;1.30;;;;;;;10.68;78.31;100158.25;5014599;28;20032;-83
2021/01/12 00:56:27;;;;;;;12.65;1.40;;;;;;;10.91;77.70;100160.97;5015224;28;20042;-82
2021/01/12 00:58:53;;;;;;;12.45;1.77;;;;;;;11.13;76.92;100169.91;5015263;28;20120;-82
2021/01/12 01:01:18;;;;;;;13.23;1.70;;;;;;;10.82;78.13;100140.63;5014555;28;20030;-82
2021/01/12 01:03:43;;;;;;;11.55;1.88;;;;;;;10.80;77.48;100132.03;5015045;28;20022;-82
2021/01/12 01:06:09;;;;;;;13.25;1.95;;;;;;;10.70;78.32;100135.34;5014912;28;20049;-82
2021/01/12 01:08:34;;;;;;;12.50;1.90;;;;;;;10.65;78.45;100124.31;5014938;28;20472;-83
2021/01/12 01:11:03;;;;;;;13.40;2.10;;;;;;;10.96;77.60;100119.44;5014783;28;20116;-82
2021/01/12 01:13:29;;;;;;;12.75;2.55;;;;;;;10.73;78.75;100136.06;5014888;28;20649;-82
2021/01/12 01:15:54;;;;;;;19.00;2.10;;;;;;;10.86;77.57;100126.31;5014453;28;20133;-82
2021/01/12 01:18:19;;;;;;;16.10;2.10;;;;;;;11.00;77.25;100157.69;5014660;28;20034;-82
2021/01/12 01:20:45;;;;;;;14.20;2.10;;;;;;;10.73;78.55;100151.81;5014597;28;20025;-83
2021/01/12 01:23:10;;;;;;;14.70;1.60;;;;;;;10.94;77.85;100145.00;5014794;28;20103;-82
2021/01/12 01:25:36;;;;;;;11.05;1.63;;;;;;;10.43;79.67;100159.16;5040649;23;20132;-82
2021/01/12 01:28:01;;;;;;;12.27;1.75;;;;;;;10.74;78.31;100145.59;5032817;28;20132;-82
2021/01/12 01:30:26;;;;;;;11.93;2.00;;;;;;;11.10;77.47;100137.66;5033884;28;20052;-82
2021/01/12 01:32:52;;;;;;;17.73;3.22;;;;;;;11.13;76.90;100125.22;5033890;28;20101;-82
2021/01/12 01:35:17;;;;;;;12.35;2.72;;;;;;;10.81;77.49;100125.84;5033360;28;20033;-81
2021/01/12 01:37:42;;;;;;;15.68;2.35;;;;;;;10.79;78.10;100127.72;5032449;28;20040;-82
2021/01/12 01:40:08;;;;;;;18.35;4.18;;;;;;;10.82;77.61;100111.72;5033991;28;20051;-81
2021/01/12 01:42:35;;;;;;;15.80;3.33;;;;;;;11.10;76.90;100106.13;5033743;28;20545;-82
2021/01/12 01:45:04;;;;;;;20.40;3.22;;;;;;;10.69;78.31;100117.88;5033650;28;20033;-82
2021/01/12 01:47:30;;;;;;;15.35;2.45;;;;;;;10.73;78.40;100121.13;5033592;28;20062;-82
2021/01/12 01:49:55;;;;;;;16.88;2.30;;;;;;;10.75;77.40;100094.78;5032022;28;20021;-82
2021/01/12 01:52:21;;;;;;;17.25;2.42;;;;;;;10.96;77.33;100111.56;5033559;28;20056;-82
2021/01/12 01:54:46;;;;;;;13.07;2.22;;;;;;;10.80;78.41;100097.88;5033412;28;20026;-82
2021/01/12 01:57:11;;;;;;;16.90;2.30;;;;;;;11.05;77.14;100086.38;5033418;28;20084;-81
2021/01/12 01:59:37;;;;;;;14.57;1.90;;;;;;;10.75;78.00;100060.63;5033251;28;20022;-81
2021/01/12 02:02:02;;;;;;;19.70;2.45;;;;;;;10.94;77.24;100076.69;5033385;28;20112;-81
2021/01/12 02:04:36;;;;;;;15.82;2.25;;;;;;;10.94;77.76;100095.09;5033028;28;20108;-82
2021/01/12 02:07:03;;;;;;;15.93;3.13;;;;;;;10.77;78.15;100095.50;5033314;28;20026;-82
2021/01/12 02:09:41;;;;;;;12.35;1.83;;;;;;;10.95;77.84;100107.25;5033389;28;20049;-82
2021/01/12 02:12:14;;;;;;;13.48;2.70;;;;;;;10.98;77.68;100103.56;5031898;28;20032;-82
2021/01/12 02:14:40;;;;;;;9.40;1.40;;;;;;;11.01;77.44;100087.56;5033190;28;20030;-82
2021/01/12 02:17:06;;;;;;;17.30;2.22;;;;;;;10.91;78.11;100100.56;5033000;28;20029;-82
2021/01/12 02:19:33;;;;;;;9.75;1.98;;;;;;;10.95;77.82;100091.50;5032776;28;20384;-82
2021/01/12 02:22:02;;;;;;;6.82;1.20;;;;;;;10.51;79.65;100087.75;5031955;28;20423;-82
2021/01/12 02:24:33;;;;;;;8.85;1.55;;;;;;;11.18;77.50;100096.84;5045827;23;20673;-83
2021/01/12 02:26:58;;;;;;;6.55;1.05;;;;;;;11.13;77.56;100120.81;5033360;28;20055;-83
2021/01/12 02:29:24;;;;;;;8.98;1.13;;;;;;;11.11;77.41;100092.00;5033029;28;20483;-84
2021/01/12 02:31:50;;;;;;;16.02;1.90;;;;;;;11.07;77.83;100095.81;5033202;28;20033;-82
2021/01/12 02:34:17;;;;;;;10.30;1.13;;;;;;;11.06;77.73;100091.53;5032722;28;20017;-82
2021/01/12 02:36:44;;;;;;;9.73;1.45;;;;;;;11.13;77.88;100110.28;5033123;28;20037;-82
2021/01/12 02:39:11;;;;;;;9.75;1.38;;;;;;;10.95;79.01;100095.91;5033133;28;20038;-82
2021/01/12 02:41:37;;;;;;;6.72;1.33;;;;;;;11.11;77.72;100089.38;5032824;28;20056;-82
2021/01/12 02:44:03;;;;;;;9.30;1.42;;;;;;;10.96;78.37;100077.41;5032895;28;20057;-82
2021/01/12 02:46:29;;;;;;;5.07;0.98;;;;;;;10.87;79.18;100070.22;5032823;28;20033;-85
2021/01/12 02:48:55;;;;;;;10.40;1.48;;;;;;;11.03;78.29;100068.09;5032421;28;20476;-83
2021/01/12 02:51:20;;;;;;;7.13;0.85;;;;;;;11.15;77.76;100070.78;5032966;28;20048;-83
2021/01/12 02:53:45;;;;;;;9.63;1.50;;;;;;;11.34;76.99;100092.09;5032630;28;20433;-83
2021/01/12 02:56:11;;;;;;;7.03;1.15;;;;;;;11.58;76.38;100080.63;5032513;28;20052;-83
2021/01/12 02:58:36;;;;;;;12.18;1.95;;;;;;;11.24;77.77;100076.16;5032656;28;20032;-84
2021/01/12 03:01:03;;;;;;;11.65;1.02;;;;;;;11.47;76.85;100098.09;5032586;28;20021;-83
2021/01/12 03:03:28;;;;;;;14.52;1.27;;;;;;;11.38;77.45;100083.00;5032286;28;20055;-83
2021/01/12 03:05:54;;;;;;;10.70;1.40;;;;;;;11.50;76.99;100075.97;5031938;28;20025;-83
2021/01/12 03:08:20;;;;;;;10.65;1.50;;;;;;;11.29;77.83;100062.66;5032570;28;20063;-84
2021/01/12 03:10:45;;;;;;;6.05;1.13;;;;;;;11.31;77.59;100055.50;5032562;28;20108;-83
2021/01/12 03:13:11;;;;;;;8.10;1.80;;;;;;;11.15;78.40;100068.16;5032521;28;20495;-84
2021/01/12 03:15:37;;;;;;;11.85;2.17;;;;;;;11.28;77.95;100066.25;5032420;28;20029;-84
2021/01/12 03:18:04;;;;;;;9.98;2.00;;;;;;;11.44;76.78;100066.75;5030603;28;20492;-83
2021/01/12 03:20:29;;;;;;;12.60;2.05;;;;;;;11.60;76.83;100048.00;5032627;28;20382;-83
2021/01/12 03:22:55;;;;;;;8.32;1.20;;;;;;;11.21;78.31;100050.09;5030935;28;20096;-83
2021/01/12 03:25:20;;;;;;;13.40;1.88;;;;;;;11.22;78.29;100053.59;5044929;23;20504;-81
2021/01/12 03:27:49;;;;;;;9.98;2.60;;;;;;;11.16;78.69;100040.91;5031787;28;20089;-82
2021/01/12 03:30:16;;;;;;;12.60;1.35;;;;;;;11.54;76.89;100043.22;5032004;28;20018;-82
2021/01/12 03:32:42;;;;;;;9.70;1.10;;;;;;;11.27;78.24;100036.50;5031892;28;20064;-82
2021/01/12 03:35:10;;;;;;;9.95;1.15;;;;;;;11.37;77.76;100031.38;5031610;28;20053;-82
2021/01/12 03:37:36;;;;;;;9.77;1.65;;;;;;;11.32;77.58;100042.25;5031416;28;20483;-81
2021/01/12 03:40:03;;;;;;;12.20;1.50;;;;;;;11.46;77.79;100021.94;5030370;28;20407;-81
2021/01/12 03:42:29;;;;;;;8.65;1.55;;;;;;;11.50;77.13;100007.59;5031143;28;20029;-81
2021/01/12 03:44:54;;;;;;;13.82;1.92;;;;;;;11.57;77.34;100023.72;5031603;28;20036;-82
2021/01/12 03:47:19;;;;;;;8.65;1.15;;;;;;;11.82;76.32;100033.16;5031655;28;20108;-81
2021/01/12 03:49:45;;;;;;;8.77;1.10;;;;;;;11.62;76.63;100016.34;5031785;28;20064;-82
2021/01/12 03:52:11;;;;;;;10.82;2.17;;;;;;;11.70;76.31;100013.94;5031661;28;20037;-81
2021/01/12 03:54:36;;;;;;;8.70;1.23;;;;;;;11.33;78.25;100008.91;5031365;28;20483;-81
2021/01/12 03:57:01;;;;;;;9.65;1.17;;;;;;;11.49;77.38;100032.22;5031088;28;20056;-82
2021/01/12 03:59:27;;;;;;;11.05;1.42;;;;;;;11.75;76.39;100031.97;5031581;28;20065;-82
2021/01/12 04:01:52;;;;;;;8.35;2.08;;;;;;;11.32;78.17;100017.75;5031574;28;20025;-82
2021/01/12 04:04:19;;;;;;;9.70;1.35;;;;;;;11.73;77.17;100020.72;5031671;28;20112;-82
2021/01/12 04:06:44;;;;;;;10.98;1.35;;;;;;;11.73;76.55;100024.22;5031526;28;20389;-82
2021/01/12 04:09:10;;;;;;;10.07;1.50;;;;;;;11.60;77.14;100012.97;5030119;28;20025;-82
2021/01/12 04:11:36;;;;;;;8.32;1.42;;;;;;;12.00;75.68;100018.56;5031069;28;20032;-82
2021/01/12 04:14:02;;;;;;;8.00;0.88;;;;;;;11.68;76.84;100021.09;5031175;28;20021;-81
2021/01/12 04:16:27;;;;;;;11.70;1.98;;;;;;;11.60;77.35;100029.59;5031244;28;20025;-81
2021/01/12 04:18:53;;;;;;;7.40;1.20;;;;;;;11.56;77.61;100022.06;5033297;28;20026;-81
2021/01/12 04:21:18;;;;;;;8.20;1.10;;;;;;;11.74;76.91;100020.63;5035548;28;20029;-81
2021/01/12 04:23:43;;;;;;;10.30;1.48;;;;;;;11.49;77.01;100011.19;5035298;28;20022;-81
2021/01/12 04:26:09;;;;;;;11.73;2.08;;;;;;;11.55;77.75;100012.50;5035328;28;20430;-81
2021/01/12 04:28:34;;;;;;;9.32;1.90;;;;;;;11.51;77.98;100015.38;5035069;28;20065;-81
2021/01/12 04:31:00;;;;;;;9.40;2.00;;;;;;;11.54;77.84;100003.78;5035164;28;20549;-81
2021/01/12 04:33:25;;;;;;;10.95;1.48;;;;;;;11.65;77.18;100005.56;5035175;28;20026;-80
2021/01/12 04:35:50;;;;;;;6.82;1.35;;;;;;;11.86;76.68;99997.75;5035205;28;20026;-81
2021/01/12 04:38:16;;;;;;;8.73;2.38;;;;;;;11.70;76.85;100012.13;5034898;28;20037;-80
2021/01/12 04:40:43;;;;;;;11.73;1.60;;;;;;;11.60;77.12;100007.72;5034653;28;20033;-81
2021/01/12 04:43:11;;;;;;;12.88;1.63;;;;;;;11.55;77.89;100009.88;5035047;28;20383;-81
2021/01/12 04:45:36;;;;;;;9.70;1.13;;;;;;;11.92;76.60;100001.75;5034838;28;20029;-81
2021/01/12 04:48:02;;;;;;;12.98;1.90;;;;;;;11.89;76.39;99998.41;5034915;28;20075;-81
2021/01/12 04:50:27;;;;;;;14.52;1.92;;;;;;;11.60;77.23;99997.22;5034793;28;20026;-81
2021/01/12 04:52:52;;;;;;;12.88;1.77;;;;;;;11.64;77.26;100002.09;5033395;28;20383;-81
2021/01/12 04:55:20;;;;;;;11.95;1.58;;;;;;;11.60;77.77;99986.69;5034619;28;20033;-81
2021/01/12 04:57:45;;;;;;;12.50;1.48;;;;;;;11.42;78.28;99989.81;5033554;28;20025;-81
2021/01/12 05:00:24;;;;;;;9.68;1.30;;;;;;;11.75;76.87;99988.13;5034640;28;20021;-81
2021/01/12 05:03:02;;;;;;;9.90;1.98;;;;;;;11.69;77.55;100005.22;5034709;28;20025;-81
2021/01/12 05:05:29;;;;;;;13.90;1.55;;;;;;;12.02;76.52;100006.13;5034390;28;20033;-81
2021/01/12 05:07:59;;;;;;;5.82;1.20;;;;;;;12.14;76.18;100006.09;5034510;28;20566;-81
2021/01/12 05:10:24;;;;;;;15.18;1.98;;;;;;;11.69;77.53;100001.75;5034164;28;20034;-82
2021/01/12 05:12:51;;;;;;;9.20;1.17;;;;;;;11.82;77.16;100007.69;5034351;28;20101;-82
2021/01/12 05:15:18;;;;;;;14.65;1.42;;;;;;;12.04;76.18;100003.38;5034383;28;20021;-82
2021/01/12 05:17:48;;;;;;;10.30;1.38;;;;;;;11.49;78.12;100008.56;5034097;28;20550;-81
2021/01/12 05:20:24;;;;;;;12.65;1.30;;;;;;;12.09;76.11;100003.84;5034272;28;20030;-81
2021/01/12 05:23:10;;;;;;;8.82;1.10;;;;;;;12.10;76.00;99989.72;5034139;28;20378;-81
2021/01/12 05:25:39;;;;;;;11.23;1.50;;;;;;;11.87;76.72;99983.66;5046568;23;20104;-83
2021/01/12 05:28:06;;;;;;;19.65;3.05;;;;;;;11.65;77.71;99995.03;5034415;28;20032;-83
2021/01/12 05:30:32;;;;;;;10.55;1.52;;;;;;;11.80;76.98;99996.47;5033730;28;20030;-83
2021/01/12 05:32:58;;;;;;;16.45;2.47;;;;;;;11.86;76.74;100008.28;5034301;28;20021;-83
2021/01/12 05:35:32;;;;;;;17.90;1.85;;;;;;;11.68;77.07;100000.06;5034597;28;20080;-83
2021/01/12 05:38:03;;;;;;;18.75;2.22;;;;;;;12.02;76.26;99997.41;5033139;28;20026;-83
2021/01/12 05:40:35;;;;;;;12.10;1.92;;;;;;;11.90;76.08;99999.22;5034080;28;20545;-83
2021/01/12 05:43:19;;;;;;;;;;;;;;;11.91;76.53;100008.81;5034615;28;20099;-83
2021/01/12 05:45:44;;;;;;;17.08;2.15;;;;;;;11.67;76.82;100007.13;5034161;28;19913;-83
2021/01/12 05:48:11;;;;;;;12.43;1.88;;;;;;;11.85;76.80;100007.47;5034187;28;20041;-83
2021/01/12 05:50:37;;;;;;;12.55;2.00;;;;;;;12.22;75.42;100006.31;5034070;28;20079;-84
2021/01/12 05:53:14;;;;;;;25.65;3.45;;;;;;;11.86;76.84;100029.34;5033764;28;20033;-84
2021/01/12 05:55:41;;;;;;;70.93;5.25;;;;;;;11.97;76.58;100010.94;5033540;28;20022;-83
2021/01/12 05:58:12;;;;;;;17.58;2.60;;;;;;;12.07;76.36;100005.78;5033852;28;20060;-83
2021/01/12 06:00:43;;;;;;;18.33;3.13;;;;;;;12.26;75.01;100005.97;5032639;28;20030;-84
2021/01/12 06:03:13;;;;;;;16.20;2.22;;;;;;;12.25;75.07;100012.16;5034044;28;20037;-83
2021/01/12 06:05:40;;;;;;;14.45;2.58;;;;;;;12.18;75.61;100005.72;5033621;28;20503;-83
2021/01/12 06:08:05;;;;;;;14.05;2.10;;;;;;;11.79;77.45;100005.31;5033788;28;20034;-83
2021/01/12 06:10:37;;;;;;;22.98;2.80;;;;;;;12.01;76.45;100001.00;5033219;28;20029;-83
2021/01/12 06:13:11;;;;;;;17.88;2.75;;;;;;;12.15;75.58;99992.00;5033134;28;20033;-83
2021/01/12 06:15:40;;;;;;;13.82;2.60;;;;;;;12.15;75.42;100013.06;5033597;28;20082;-84
2021/01/12 06:18:14;;;;;;;23.63;3.28;;;;;;;12.35;74.52;100008.78;5033483;28;20030;-83
2021/01/12 06:20:54;;;;;;;17.35;3.83;;;;;;;12.29;75.03;100010.97;5033513;28;20108;-84
2021/01/12 06:23:46;;;;;;;15.20;3.97;;;;;;;12.17;75.50;100014.59;5033613;28;20116;-84
2021/01/12 06:26:13;;;;;;;23.00;3.25;;;;;;;12.16;75.35;100010.28;5029833;22;20077;-81
2021/01/12 06:28:42;;;;;;;14.27;3.42;;;;;;;12.42;74.38;100021.34;5028501;28;20026;-81
2021/01/12 06:31:09;;;;;;;13.05;4.10;;;;;;;11.82;77.08;100033.16;5013211;28;20026;-82
2021/01/12 06:33:35;;;;;;;12.85;3.38;;;;;;;12.04;76.27;100024.44;5013055;28;20026;-81
2021/01/12 06:36:02;;;;;;;13.52;3.53;;;;;;;12.05;76.33;100034.84;5013119;28;20156;-82
2021/01/12 06:38:29;;;;;;;14.65;3.85;;;;;;;11.93;76.57;100046.34;5010060;28;20088;-82
2021/01/12 06:40:57;;;;;;;12.65;4.10;;;;;;;11.76;77.15;100031.84;5010520;28;20038;-81
2021/01/12 06:43:28;;;;;;;13.48;4.72;;;;;;;12.07;76.02;100032.09;5012822;28;20492;-82
2021/01/12 06:45:55;;;;;;;14.25;3.25;;;;;;;12.41;74.44;100034.63;5011506;28;20091;-82
2021/01/12 06:48:20;;;;;;;13.50;4.05;;;;;;;12.00;76.16;100044.06;5012766;28;20434;-82
2021/01/12 06:50:46;;;;;;;16.80;4.57;;;;;;;12.35;74.92;100035.13;5012701;28;20170;-82
2021/01/12 06:53:13;;;;;;;12.02;4.22;;;;;;;12.29;75.03;100039.91;5011889;28;20156;-82
2021/01/12 06:55:38;;;;;;;11.57;3.90;;;;;;;12.00;76.43;100046.69;5010980;28;20392;-82
2021/01/12 06:58:08;;;;;;;22.75;5.10;;;;;;;12.03;75.97;100049.09;5012435;28;20032;-82
2021/01/12 07:00:35;;;;;;;21.77;5.35;;;;;;;12.18;75.54;100049.63;5012539;28;20026;-82
2021/01/12 07:03:01;;;;;;;13.77;4.30;;;;;;;12.38;74.94;100059.41;5012446;28;20063;-82
2021/01/12 07:05:41;;;;;;;17.10;4.95;;;;;;;12.42;74.76;100054.72;5012502;28;20061;-82
2021/01/12 07:08:09;;;;;;;16.58;5.65;;;;;;;12.02;76.60;100066.66;5011400;28;20030;-82
2021/01/12 07:10:47;;;;;;;10.48;4.13;;;;;;;12.51;74.42;100069.78;5012393;28;20022;-82
2021/01/12 07:13:13;;;;;;;14.55;4.40;;;;;;;12.34;75.22;100063.22;5012434;28;20021;-81
2021/01/12 07:15:44;;;;;;;22.13;6.07;;;;;;;12.38;74.24;100051.50;5012215;28;20123;-81
2021/01/12 07:18:10;;;;;;;12.35;5.28;;;;;;;11.94;76.30;100062.97;5012064;28;20029;-81
2021/01/12 07:20:40;;;;;;;16.83;5.15;;;;;;;12.52;74.04;100058.28;5010844;28;20476;-81
2021/01/12 07:23:10;;;;;;;14.43;5.28;;;;;;;12.24;75.07;100059.66;5011185;28;20052;-81
2021/01/12 07:25:36;;;;;;;17.85;5.22;;;;;;;12.45;74.35;100067.63;5012605;28;20188;-81
2021/01/12 07:28:03;;;;;;;14.40;5.28;;;;;;;12.53;74.69;100073.13;5012201;28;20427;-81
2021/01/12 07:30:29;;;;;;;12.15;4.63;;;;;;;12.46;74.36;100075.41;5012039;28;20105;-81
2021/01/12 07:33:03;;;;;;;12.77;4.50;;;;;;;12.75;73.63;100072.19;5012135;28;20498;-81
2021/01/12 07:35:29;;;;;;;12.95;6.22;;;;;;;12.12;76.06;100073.81;5011934;28;20464;-81
2021/01/12 07:37:55;;;;;;;13.02;5.70;;;;;;;12.55;74.08;100081.72;5010916;28;20065;-81
2021/01/12 07:40:21;;;;;;;17.58;5.68;;;;;;;12.36;75.24;100095.56;5011990;28;20101;-82
2021/01/12 07:42:49;;;;;;;12.65;6.10;;;;;;;12.44;74.39;100087.00;5011561;28;20042;-82
2021/01/12 07:45:17;;;;;;;15.68;5.28;;;;;;;11.86;76.25;100087.22;5011993;28;20108;-81
2021/01/12 07:47:42;;;;;;;13.13;6.13;;;;;;;12.46;74.48;100091.22;5011958;28;20072;-81
2021/01/12 07:50:08;;;;;;;17.35;7.07;;;;;;;12.33;74.34;100105.50;5011615;28;20030;-81
2021/01/12 07:52:34;;;;;;;20.52;7.40;;;;;;;12.28;74.91;100093.53;5011021;28;20025;-81
2021/01/12 07:54:59;;;;;;;15.98;6.57;;;;;;;12.46;74.26;100104.38;5011726;28;20033;-81
2021/01/12 07:57:25;;;;;;;15.07;6.45;;;;;;;12.53;73.74;100098.63;5011570;28;20034;-82
2021/01/12 07:59:51;;;;;;;14.80;6.78;;;;;;;12.61;73.57;100112.81;5011703;28;20022;-81
2021/01/12 08:02:16;;;;;;;18.38;7.72;;;;;;;12.15;75.13;100100.72;5011917;28;20502;-81
2021/01/12 08:04:42;;;;;;;27.30;9.13;;;;;;;11.79;77.05;100101.78;5011636;28;20088;-81
2021/01/12 08:07:07;;;;;;;18.30;8.90;;;;;;;12.17;75.95;100117.25;5012339;28;20088;-94
2021/01/12 08:09:33;;;;;;;18.20;7.38;;;;;;;12.60;73.94;100111.16;5011138;28;20034;-84
2021/01/12 08:12:04;;;;;;;20.88;8.55;;;;;;;12.64;73.58;100104.69;5009935;28;20029;-84
2021/01/12 08:14:30;;;;;;;21.58;9.10;;;;;;;12.40;74.34;100117.19;5011710;28;20419;-84
2021/01/12 08:16:56;;;;;;;16.45;9.13;;;;;;;12.43;74.64;100119.59;5011622;28;20514;-84
2021/01/12 08:19:23;;;;;;;18.42;8.43;;;;;;;12.76;73.40;100133.63;5009981;28;20017;-84
2021/01/12 08:21:50;;;;;;;18.65;8.77;;;;;;;12.65;73.33;100132.69;5011322;28;20021;-84
2021/01/12 08:26:50;;;;;;;21.33;8.35;;;;;;;12.64;74.03;100140.75;5037442;28;20041;-80
2021/01/12 08:29:26;;;;;;;16.38;8.43;;;;;;;12.51;74.48;100140.88;5035764;28;20065;-80
2021/01/12 08:32:05;;;;;;;27.15;9.25;;;;;;;12.03;76.29;100151.72;5038139;28;20056;-80
2021/01/12 08:34:39;;;;;;;21.55;9.93;;;;;;;12.29;75.35;100147.03;5051375;28;20021;-80
2021/01/12 08:37:06;;;;;;;21.63;9.60;;;;;;;12.55;74.70;100152.00;5041988;28;20446;-80
2021/01/12 08:39:33;;;;;;;19.38;9.38;;;;;;;12.44;75.17;100160.75;5045499;28;20037;-80
2021/01/12 08:41:59;;;;;;;16.70;8.85;;;;;;;12.57;74.29;100156.19;5053004;28;20701;-80
2021/01/12 08:44:32;;;;;;;21.02;9.75;;;;;;;12.65;74.46;100164.28;5034366;28;20048;-79
2021/01/12 08:47:03;;;;;;;19.08;9.07;;;;;;;12.75;73.97;100174.94;5032055;28;20034;-80
2021/01/12 08:49:35;;;;;;;18.73;9.80;;;;;;;12.40;74.71;100172.47;5031081;28;20109;-82
2021/01/12 08:52:05;;;;;;;20.65;9.43;;;;;;;12.71;73.98;100178.78;5031244;28;20391;-82
2021/01/12 08:54:31;;;;;;;19.45;9.10;;;;;;;12.61;73.99;100178.66;5030480;28;20045;-82
2021/01/12 08:56:58;;;;;;;18.55;9.10;;;;;;;12.54;74.68;100169.59;5031090;28;20383;-82
2021/01/12 08:59:28;;;;;;;20.10;8.73;;;;;;;12.29;75.80;100179.44;5031130;28;20101;-83
2021/01/12 09:01:54;;;;;;;19.73;8.63;;;;;;;12.66;74.26;100179.16;5031251;28;20014;-81
2021/01/12 09:04:19;;;;;;;18.17;9.70;;;;;;;12.66;74.18;100184.41;5032038;28;20032;-82
2021/01/12 09:06:45;;;;;;;22.17;8.95;;;;;;;12.90;73.25;100188.66;5030805;28;20533;-81
2021/01/12 09:09:14;;;;;;;18.65;8.55;;;;;;;12.70;73.74;100188.47;5042557;28;20025;-80
2021/01/12 09:11:46;;;;;;;18.83;9.57;;;;;;;12.79;73.78;100186.88;5042205;28;20482;-81
2021/01/12 09:14:12;;;;;;;19.55;8.57;;;;;;;12.33;75.26;100200.28;5039152;28;20031;-80
2021/01/12 09:16:40;;;;;;;21.00;8.93;;;;;;;12.69;73.93;100202.59;5038076;28;20029;-80
2021/01/12 09:19:36;;;;;;;15.30;8.75;;;;;;;12.88;73.34;100216.94;5040989;28;20083;-80
2021/01/12 09:22:15;;;;;;;13.82;8.40;;;;;;;12.93;73.05;100214.75;5047485;28;20033;-79
2021/01/12 09:24:49;;;;;;;17.55;8.30;;;;;;;12.60;74.58;100218.28;5041700;28;20017;-81
2021/01/12 09:27:27;;;;;;;14.65;8.05;;;;;;;12.85;73.80;100228.53;5039349;28;20040;-80
2021/01/12 09:29:54;;;;;;;14.70;7.85;;;;;;;12.90;73.22;100236.09;5044737;28;20384;-80
2021/01/12 09:32:25;;;;;;;11.07;7.50;;;;;;;12.86;73.74;100235.50;5043716;28;20021;-80
2021/01/12 09:34:51;;;;;;;16.52;6.70;;;;;;;12.63;74.05;100239.97;5044987;28;20048;-80
2021/01/12 09:37:18;;;;;;;12.02;6.88;;;;;;;12.69;74.29;100249.19;5034907;28;20483;-80
2021/01/12 09:39:45;;;;;;;17.17;7.90;;;;;;;12.80;73.92;100248.34;5035533;28;20072;-80
2021/01/12 09:42:11;;;;;;;21.95;8.48;;;;;;;12.66;74.22;100250.28;5037345;28;20065;-80
2021/01/12 09:44:36;;;;;;;11.93;6.75;;;;;;;12.62;74.42;100262.00;5038742;28;20497;-80
2021/01/12 09:47:02;;;;;;;12.15;6.93;;;;;;;12.70;74.12;100249.06;5037113;28;20387;-80
2021/01/12 09:49:33;;;;;;;14.50;7.47;;;;;;;12.85;74.18;100254.91;5033909;28;20049;-80
2021/01/12 09:51:59;;;;;;;13.65;7.10;;;;;;;13.02;73.15;100263.28;5033817;28;20032;-80
2021/01/12 09:54:24;;;;;;;11.68;6.57;;;;;;;13.14;72.81;100277.25;5047933;28;20029;-80
2021/01/12 09:56:49;;;;;;;9.73;5.93;;;;;;;13.22;72.80;100274.84;5039867;28;20048;-81
2021/01/12 09:59:15;;;;;;;14.27;6.78;;;;;;;12.97;73.36;100273.34;5037119;28;20033;-81
2021/01/12 10:01:40;;;;;;;12.18;6.47;;;;;;;13.09;72.78;100273.19;5040922;28;20017;-80
2021/01/12 10:04:05;;;;;;;11.18;6.10;;;;;;;13.04;72.67;100272.72;5020310;28;20040;-80
2021/01/12 10:06:32;;;;;;;17.25;7.70;;;;;;;12.97;73.22;100279.44;5045347;28;20151;-80
2021/01/12 10:08:57;;;;;;;11.82;6.40;;;;;;;13.11;73.02;100286.22;5039856;28;20010;-80
2021/01/12 10:11:23;;;;;;;13.40;6.70;;;;;;;13.19;72.98;100291.75;5042564;28;20025;-80
2021/01/12 10:13:48;;;;;;;11.88;6.70;;;;;;;13.34;72.62;100294.97;5029268;28;20461;-80
2021/01/12 10:16:24;;;;;;;12.57;5.60;;;;;;;13.34;72.40;100294.13;5041701;28;20032;-80
2021/01/12 10:18:50;;;;;;;9.55;6.30;;;;;;;13.17;73.01;100300.72;5042352;28;20143;-80
2021/01/12 10:21:17;;;;;;;8.00;5.80;;;;;;;13.40;71.97;100306.81;5045059;28;20466;-80
2021/01/12 10:23:42;;;;;;;11.32;4.90;;;;;;;13.28;72.29;100311.25;5029654;28;20029;-80
2021/01/12 10:26:16;;;;;;;10.52;5.47;;;;;;;13.56;71.96;100307.22;5040349;28;20119;-80
2021/01/12 10:28:41;;;;;;;9.15;5.70;;;;;;;13.75;71.40;100314.47;5037498;28;20484;-80
2021/01/12 10:31:10;;;;;;;11.15;5.72;;;;;;;13.86;71.45;100313.56;5037012;28;20030;-80
2021/01/12 10:33:36;;;;;;;7.95;5.38;;;;;;;13.82;71.06;100320.06;5029427;28;20177;-81
2021/01/12 10:36:01;;;;;;;9.20;6.35;;;;;;;13.55;71.80;100325.84;5035920;28;20128;-80
2021/01/12 10:38:29;;;;;;;9.57;5.72;;;;;;;13.72;71.41;100332.34;5036395;28;20032;-80
2021/01/12 10:40:54;;;;;;;7.00;6.22;;;;;;;13.76;70.99;100334.59;5044680;28;20032;-80
2021/01/12 10:43:20;;;;;;;10.55;6.70;;;;;;;13.55;71.25;100336.38;5026837;28;20021;-81
2021/01/12 10:45:45;;;;;;;9.50;6.88;;;;;;;13.28;72.74;100335.81;5029791;28;20033;-81
2021/01/12 10:48:10;;;;;;;13.35;8.50;;;;;;;13.57;72.60;100339.75;5025155;28;20035;-81
2021/01/12 10:50:36;;;;;;;8.68;6.72;;;;;;;13.93;71.89;100335.03;5040986;28;20057;-81
2021/01/12 10:53:01;;;;;;;11.90;6.72;;;;;;;14.11;71.43;100338.75;5015365;28;20025;-81
2021/01/12 10:55:26;;;;;;;7.35;6.00;;;;;;;14.21;70.66;100339.66;5037231;28;20032;-81
2021/01/12 10:57:52;;;;;;;8.80;6.07;;;;;;;14.12;70.40;100348.38;5033422;28;20036;-81
2021/01/12 11:00:18;;;;;;;9.60;5.47;;;;;;;14.17;69.76;100350.63;5032204;28;20040;-80
2021/01/12 11:02:43;;;;;;;6.00;4.38;;;;;;;14.34;69.37;100346.56;5037608;28;20025;-81
2021/01/12 11:05:09;;;;;;;6.30;5.32;;;;;;;14.38;69.37;100359.38;5026456;28;20109;-81
2021/01/12 11:07:38;;;;;;;6.72;5.53;;;;;;;14.54;69.61;100361.53;5035553;28;20064;-81
2021/01/12 11:10:03;;;;;;;7.43;4.97;;;;;;;14.51;69.86;100356.50;5038060;28;20106;-81
2021/01/12 11:12:30;;;;;;;7.53;4.80;;;;;;;14.65;69.32;100353.56;5045463;28;20033;-82
2021/01/12 11:14:56;;;;;;;8.68;4.47;;;;;;;14.22;68.85;100359.84;5025298;28;20033;-81
2021/01/12 11:17:21;;;;;;;6.95;4.35;;;;;;;14.47;69.60;100366.53;5040714;28;20035;-81
2021/01/12 11:19:48;;;;;;;5.95;4.05;;;;;;;14.71;68.95;100364.56;5031923;28;20030;-81
2021/01/12 11:22:13;;;;;;;6.50;3.85;;;;;;;14.86;68.27;100357.97;5043227;28;20074;-85